Time;durP1;ratioP1;P1;durP2;ratioP2;P2;SDS_P1;SDS_P2;PMS_P1;PMS_P2;Temp;Humidity;BMP_temperature;BMP_pressure;BME280_temperature;BME280_humidity;BME280_pressure;Samples;Min_cycle;Max_cycle;Signal;HPM_P1;HPM_P2
2023/03/15 00:00:53;;;;;;;3.03;2.40;;;3.80;99.90;;;;;;4992399;28;21323;-54
2023/03/15 00:03:19;;;;;;;2.50;2.40;;;3.80;99.90;;;;;;4992594;28;20397;-53
2023/03/15 00:05:46;;;;;;;2.47;2.22;;;3.80;99.90;;;;;;4991407;28;20038;-50
2023/03/15 00:08:13;;;;;;;3.65;2.30;;;3.80;99.90;;;;;;4992423;28;20029;-54
2023/03/15 00:10:43;;;;;;;2.20;2.10;;;3.80;99.90;;;;;;4992484;28;20118;-53
2023/03/15 00:13:10;;;;;;;2.80;2.45;;;3.70;99.90;;;;;;4992343;28;20023;-52
2023/03/15 00:15:43;;;;;;;5.32;2.20;;;3.70;99.90;;;;;;4992492;28;20432;-52
2023/03/15 00:18:08;;;;;;;2.63;2.47;;;3.70;99.90;;;;;;4992473;28;20035;-52
2023/03/15 00:20:36;;;;;;;2.83;2.63;;;3.70;99.90;;;;;;4992354;28;20061;-50
2023/03/15 00:23:01;;;;;;;2.17;2.08;;;3.70;99.90;;;;;;4991980;28;20034;-52
2023/03/15 00:25:27;;;;;;;2.30;2.20;;;3.70;99.90;;;;;;4992317;28;20085;-55
2023/03/15 00:27:53;;;;;;;2.22;2.13;;;3.60;99.90;;;;;;4992039;28;20047;-53
2023/03/15 00:30:18;;;;;;;2.60;2.45;;;3.50;99.90;;;;;;4992243;28;20022;-51
2023/03/15 00:32:44;;;;;;;4.00;2.50;;;3.50;99.90;;;;;;4992213;28;20389;-52
2023/03/15 00:35:11;;;;;;;3.67;2.47;;;3.60;99.90;;;;;;4992188;28;20445;-53
2023/03/15 00:37:37;;;;;;;2.70;2.50;;;3.60;99.90;;;;;;4992229;28;20019;-52
2023/03/15 00:40:05;;;;;;;2.53;2.33;;;3.60;99.90;;;;;;4990910;28;20578;-54
2023/03/15 00:42:32;;;;;;;6.65;2.85;;;3.70;99.90;;;;;;4991873;28;20030;-53
2023/03/15 00:44:58;;;;;;;5.38;2.50;;;3.60;99.90;;;;;;4991001;28;20069;-52
2023/03/15 00:47:24;;;;;;;4.80;2.83;;;3.70;99.90;;;;;;4992118;28;20057;-50
2023/03/15 00:49:50;;;;;;;5.18;2.85;;;3.60;99.90;;;;;;4992299;28;20034;-52
2023/03/15 00:52:41;;;;;;;5.72;4.20;;;3.70;99.90;;;;;;4992002;28;20373;-49
2023/03/15 00:55:12;;;;;;;2.65;2.45;;;3.70;99.90;;;;;;4990858;28;20378;-51
2023/03/15 00:57:53;;;;;;;2.65;2.55;;;3.80;99.90;;;;;;4990726;28;20030;-49
2023/03/15 01:00:23;;;;;;;2.70;2.50;;;3.80;99.90;;;;;;4992076;28;20088;-54
2023/03/15 01:02:51;;;;;;;4.18;2.70;;;3.80;99.90;;;;;;4991674;28;20057;-51
2023/03/15 01:05:16;;;;;;;2.72;2.50;;;3.80;99.90;;;;;;4992080;28;20030;-52
2023/03/15 01:07:44;;;;;;;4.93;4.43;;;3.90;99.90;;;;;;4991991;28;20332;-52
2023/03/15 01:10:11;;;;;;;2.78;2.40;;;3.90;99.90;;;;;;4992041;28;20121;-52
2023/03/15 01:12:37;;;;;;;2.70;2.50;;;3.90;99.90;;;;;;4992506;28;20049;-50
2023/03/15 01:15:05;;;;;;;2.65;2.45;;;3.90;99.90;;;;;;4995645;28;20407;-51
2023/03/15 01:17:31;;;;;;;2.72;2.33;;;3.90;99.90;;;;;;4995374;28;20069;-52
2023/03/15 01:19:58;;;;;;;2.95;2.45;;;3.90;99.90;;;;;;4995607;28;20839;-53
2023/03/15 01:22:24;;;;;;;5.57;2.63;;;3.90;99.90;;;;;;4995500;28;20053;-50
2023/03/15 01:24:49;;;;;;;2.97;2.50;;;3.90;99.90;;;;;;4995340;28;20050;-53
2023/03/15 01:27:15;;;;;;;4.85;2.30;;;3.90;99.90;;;;;;4995301;28;20104;-53
2023/03/15 01:29:42;;;;;;;3.90;2.50;;;3.90;99.90;;;;;;4995120;28;20047;-51
2023/03/15 01:32:07;;;;;;;5.18;3.13;;;3.90;99.90;;;;;;4995248;28;20088;-52
2023/03/15 01:34:34;;;;;;;2.67;2.30;;;3.90;99.90;;;;;;4995183;28;20034;-51
2023/03/15 01:37:01;;;;;;;2.60;2.40;;;3.90;99.90;;;;;;4995319;28;20053;-52
2023/03/15 01:39:27;;;;;;;6.50;2.88;;;3.90;99.90;;;;;;4995273;28;20084;-50
2023/03/15 01:41:53;;;;;;;4.40;2.40;;;3.90;99.90;;;;;;4994935;28;20030;-52
2023/03/15 01:44:19;;;;;;;3.65;2.42;;;3.90;99.90;;;;;;4994996;28;20026;-53
2023/03/15 01:46:45;;;;;;;3.00;2.67;;;3.90;99.90;;;;;;4994806;28;20022;-50
2023/03/15 01:49:14;;;;;;;8.45;2.95;;;3.90;99.90;;;;;;4995759;28;20422;-55
2023/03/15 01:52:11;;;;;;;5.13;2.55;;;3.90;99.90;;;;;;4994730;28;20033;-52
2023/03/15 01:54:48;;;;;;;4.20;2.55;;;3.80;99.90;;;;;;4994832;28;20394;-49
2023/03/15 01:57:46;;;;;;;3.67;2.25;;;3.80;99.90;;;;;;4994783;28;20073;-49
2023/03/15 02:00:16;;;;;;;2.83;2.55;;;3.80;99.90;;;;;;4982710;28;20113;-55
2023/03/15 02:03:16;;;;;;;6.82;2.75;;;3.80;99.90;;;;;;4994477;28;20064;-50
2023/03/15 02:05:53;;;;;;;4.00;2.10;;;3.80;99.90;;;;;;4993223;28;20035;-52
2023/03/15 02:08:21;;;;;;;2.58;2.40;;;3.80;99.90;;;;;;4994735;28;20373;-53
2023/03/15 02:10:53;;;;;;;3.92;2.42;;;3.80;99.90;;;;;;4994394;28;20117;-51
2023/03/15 02:13:22;;;;;;;4.20;2.80;;;3.70;99.90;;;;;;4994543;28;20023;-50
2023/03/15 02:15:48;;;;;;;5.40;4.22;;;3.60;99.90;;;;;;4994323;28;20516;-54
2023/03/15 02:18:17;;;;;;;2.47;2.30;;;3.50;99.90;;;;;;4994417;28;20527;-52
2023/03/15 02:20:48;;;;;;;4.30;2.60;;;3.50;99.90;;;;;;4994290;28;20023;-52
2023/03/15 02:23:17;;;;;;;5.60;2.53;;;3.60;99.90;;;;;;4993866;28;20082;-51
2023/03/15 02:25:52;;;;;;;7.28;2.47;;;3.60;99.90;;;;;;4994361;28;20021;-50
2023/03/15 02:28:18;;;;;;;7.10;2.20;;;3.60;99.90;;;;;;4994171;28;20414;-52
2023/03/15 02:30:45;;;;;;;5.72;2.33;;;3.70;99.90;;;;;;4993875;28;20042;-52
2023/03/15 02:33:18;;;;;;;2.60;2.40;;;3.70;99.90;;;;;;4992879;28;20022;-51
2023/03/15 02:35:43;;;;;;;2.95;2.50;;;3.60;99.90;;;;;;4994026;28;20026;-54
2023/03/15 02:38:09;;;;;;;5.35;2.63;;;3.60;99.90;;;;;;4994062;28;20033;-51
2023/03/15 02:40:34;;;;;;;3.03;2.63;;;3.60;99.90;;;;;;4993951;28;20346;-54
2023/03/15 02:43:09;;;;;;;4.97;2.40;;;3.60;99.90;;;;;;4993923;28;20037;-51
2023/03/15 02:45:53;;;;;;;3.10;2.65;;;3.60;99.90;;;;;;4993728;28;20030;-53
2023/03/15 02:48:20;;;;;;;2.45;2.15;;;3.60;99.90;;;;;;4993978;28;20031;-53
2023/03/15 02:50:46;;;;;;;4.05;2.45;;;3.50;99.90;;;;;;4993778;28;20030;-52
2023/03/15 02:53:12;;;;;;;3.22;2.90;;;3.60;99.90;;;;;;4994000;28;20033;-54
2023/03/15 02:55:38;;;;;;;3.67;2.92;;;3.50;99.90;;;;;;4992219;28;20121;-52
2023/03/15 02:58:04;;;;;;;2.65;2.47;;;3.50;99.90;;;;;;4993768;28;20026;-52
2023/03/15 03:00:30;;;;;;;3.08;2.85;;;3.60;99.90;;;;;;4993631;28;20490;-55
2023/03/15 03:02:56;;;;;;;3.00;2.50;;;3.50;99.90;;;;;;4992176;28;20109;-53
2023/03/15 03:05:22;;;;;;;3.88;2.72;;;3.60;99.90;;;;;;4993643;28;20018;-55
2023/03/15 03:07:49;;;;;;;3.05;2.55;;;3.60;99.90;;;;;;4993427;28;20034;-55
2023/03/15 03:10:17;;;;;;;3.85;2.63;;;3.60;99.90;;;;;;4993369;28;20029;-56
2023/03/15 03:12:43;;;;;;;10.68;2.75;;;3.60;99.90;;;;;;4993359;28;20028;-55
2023/03/15 03:15:10;;;;;;;5.05;2.55;;;3.60;99.90;;;;;;4993093;28;20018;-54
2023/03/15 03:17:36;;;;;;;4.53;2.72;;;3.70;99.90;;;;;;4993449;28;20063;-53
2023/03/15 03:20:12;;;;;;;3.65;2.88;;;3.70;99.90;;;;;;4993381;28;20462;-55
2023/03/15 03:22:39;;;;;;;5.78;3.85;;;3.70;99.90;;;;;;4992939;28;20042;-54
2023/03/15 03:25:06;;;;;;;3.03;2.50;;;3.70;99.90;;;;;;4993331;28;20378;-54
2023/03/15 03:27:35;;;;;;;3.90;3.30;;;3.80;99.90;;;;;;4992905;28;20043;-51
2023/03/15 03:30:05;;;;;;;7.80;3.78;;;3.80;99.90;;;;;;4993135;28;20022;-52
2023/03/15 03:32:31;;;;;;;4.97;2.75;;;3.80;99.90;;;;;;4992970;28;20061;-55
2023/03/15 03:34:56;;;;;;;4.35;2.63;;;3.80;99.90;;;;;;4992587;28;20058;-51
2023/03/15 03:37:22;;;;;;;5.25;4.43;;;3.90;99.90;;;;;;4992733;28;20042;-51
2023/03/15 03:39:47;;;;;;;4.63;2.75;;;3.70;99.90;;;;;;4992869;28;20113;-50
2023/03/15 03:42:13;;;;;;;4.38;3.03;;;3.70;99.90;;;;;;4992874;28;20069;-51
2023/03/15 03:44:39;;;;;;;3.63;2.60;;;3.80;99.90;;;;;;4992669;28;20113;-52
2023/03/15 03:47:06;;;;;;;2.90;2.58;;;3.80;99.90;;;;;;4992912;28;20069;-50
2023/03/15 03:49:31;;;;;;;11.95;7.63;;;3.90;99.90;;;;;;4992756;28;20026;-52
2023/03/15 03:51:59;;;;;;;10.70;3.17;;;3.70;99.90;;;;;;4990664;28;20125;-51
2023/03/15 03:54:25;;;;;;;2.85;2.47;;;3.70;99.90;;;;;;4992190;28;20026;-58
2023/03/15 03:56:50;;;;;;;3.70;2.65;;;3.70;99.90;;;;;;4991072;28;20429;-49
2023/03/15 03:59:16;;;;;;;3.20;2.70;;;3.70;99.90;;;;;;4991915;28;20037;-53
2023/03/15 04:01:42;;;;;;;5.25;2.97;;;3.50;99.90;;;;;;4991576;28;20077;-48
2023/03/15 04:04:08;;;;;;;9.23;2.83;;;3.50;99.90;;;;;;4991835;28;20026;-49
2023/03/15 04:06:34;;;;;;;3.88;2.58;;;3.50;99.90;;;;;;4991092;28;20022;-47
2023/03/15 04:09:02;;;;;;;5.65;4.30;;;3.40;99.90;;;;;;4992478;28;20022;-54
2023/03/15 04:11:28;;;;;;;3.53;2.70;;;3.40;99.90;;;;;;4992526;28;20022;-51
2023/03/15 04:13:54;;;;;;;3.80;3.13;;;3.30;99.90;;;;;;4992324;28;20089;-52
2023/03/15 04:16:20;;;;;;;3.20;2.90;;;3.30;99.90;;;;;;4992505;28;20026;-54
2023/03/15 04:18:46;;;;;;;3.45;3.17;;;3.20;99.90;;;;;;4992399;28;20026;-56
2023/03/15 04:21:11;;;;;;;2.55;2.35;;;3.20;99.90;;;;;;4992375;28;20397;-51
2023/03/15 04:23:37;;;;;;;3.22;2.15;;;3.20;99.90;;;;;;4992040;28;20057;-48
2023/03/15 04:26:04;;;;;;;4.00;3.65;;;3.20;99.90;;;;;;4992468;28;20053;-49
2023/03/15 04:28:30;;;;;;;3.28;2.80;;;3.10;99.90;;;;;;4992093;28;20501;-53
2023/03/15 04:30:57;;;;;;;2.33;2.22;;;3.00;99.90;;;;;;4992301;28;20080;-53
2023/03/15 04:33:23;;;;;;;2.30;2.20;;;3.10;99.90;;;;;;4992295;28;20022;-55
2023/03/15 04:35:51;;;;;;;2.75;2.55;;;3.10;99.90;;;;;;4992022;28;20022;-50
2023/03/15 04:38:17;;;;;;;8.68;4.93;;;3.10;99.90;;;;;;4992234;28;20057;-55
2023/03/15 04:40:43;;;;;;;2.55;2.45;;;3.00;99.90;;;;;;4992193;28;20477;-51
2023/03/15 04:43:09;;;;;;;3.05;2.85;;;3.10;99.90;;;;;;4991974;28;20033;-51
2023/03/15 04:45:35;;;;;;;2.90;2.70;;;3.00;99.90;;;;;;4991990;28;20414;-52
2023/03/15 04:48:01;;;;;;;2.70;2.50;;;3.10;99.90;;;;;;4994127;28;20461;-53
2023/03/15 04:50:28;;;;;;;3.00;2.80;;;3.10;99.90;;;;;;4996402;28;20121;-53
2023/03/15 04:52:54;;;;;;;4.22;3.92;;;3.00;99.90;;;;;;4996014;28;20030;-55
2023/03/15 04:55:20;;;;;;;3.15;2.95;;;3.00;99.90;;;;;;4994792;28;20553;-51
2023/03/15 04:57:45;;;;;;;3.10;2.90;;;3.10;99.90;;;;;;4995731;28;20030;-53
2023/03/15 05:00:11;;;;;;;3.25;3.03;;;3.00;99.90;;;;;;4995966;28;20037;-51
2023/03/15 05:02:38;;;;;;;3.28;3.08;;;3.00;99.90;;;;;;4995650;28;20022;-52
2023/03/15 05:05:11;;;;;;;2.72;2.60;;;2.90;99.90;;;;;;4995869;28;20026;-52
2023/03/15 05:07:37;;;;;;;3.03;2.83;;;3.00;99.90;;;;;;4995452;28;20022;-56
2023/03/15 05:10:05;;;;;;;2.95;2.75;;;3.00;99.90;;;;;;4995734;28;20735;-52
2023/03/15 05:12:32;;;;;;;3.40;2.90;;;3.00;99.90;;;;;;4995637;28;20123;-51
2023/03/15 05:14:58;;;;;;;3.15;2.95;;;2.90;99.90;;;;;;4995877;28;20023;-50
2023/03/15 05:17:24;;;;;;;3.28;3.08;;;2.80;99.90;;;;;;4995864;28;20134;-52
2023/03/15 05:19:50;;;;;;;3.88;2.80;;;2.70;99.90;;;;;;4994102;28;20030;-51
2023/03/15 05:22:16;;;;;;;2.85;2.50;;;2.80;99.90;;;;;;4995441;28;20027;-49
2023/03/15 05:24:42;;;;;;;4.85;3.40;;;2.60;99.90;;;;;;4995407;28;20077;-52
2023/03/15 05:27:08;;;;;;;5.30;2.90;;;2.70;99.90;;;;;;4993821;28;20042;-49
2023/03/15 05:29:34;;;;;;;2.72;2.55;;;2.80;99.90;;;;;;4995076;28;20026;-50
2023/03/15 05:32:03;;;;;;;2.78;2.58;;;2.60;99.90;;;;;;4995337;28;20100;-53
2023/03/15 05:34:31;;;;;;;3.03;2.83;;;2.60;99.90;;;;;;4995230;28;20508;-52
2023/03/15 05:36:57;;;;;;;2.72;2.53;;;2.60;99.90;;;;;;4995117;28;20026;-50
2023/03/15 05:39:23;;;;;;;2.50;2.40;;;2.60;99.90;;;;;;4995252;28;20026;-55
2023/03/15 05:41:48;;;;;;;2.75;2.55;;;2.60;99.90;;;;;;4994782;28;20033;-54
2023/03/15 05:44:14;;;;;;;3.17;2.90;;;2.60;99.90;;;;;;4995014;28;20053;-54
2023/03/15 05:46:40;;;;;;;3.35;2.90;;;2.40;99.90;;;;;;4994912;28;20080;-55
2023/03/15 05:49:05;;;;;;;3.00;2.80;;;2.50;99.90;;;;;;4994967;28;20027;-51
2023/03/15 05:51:31;;;;;;;3.30;3.00;;;2.40;99.90;;;;;;4994879;28;20049;-53
2023/03/15 05:53:57;;;;;;;4.95;4.55;;;2.40;99.90;;;;;;4994965;28;20469;-49
2023/03/15 05:56:22;;;;;;;3.38;3.08;;;2.40;99.90;;;;;;4994863;28;20031;-52
2023/03/15 05:58:48;;;;;;;3.88;3.58;;;2.40;99.90;;;;;;4993737;28;20027;-53
2023/03/15 06:01:13;;;;;;;4.35;3.75;;;2.40;99.90;;;;;;4995264;28;20030;-56
2023/03/15 06:03:39;;;;;;;3.53;3.22;;;2.40;99.90;;;;;;4994438;28;20034;-49
2023/03/15 06:06:05;;;;;;;5.53;4.32;;;2.40;99.90;;;;;;4994839;28;20452;-52
2023/03/15 06:08:31;;;;;;;3.92;3.63;;;2.30;99.90;;;;;;4994696;28;20023;-50
2023/03/15 06:10:56;;;;;;;3.55;3.33;;;2.30;99.90;;;;;;4994548;28;20022;-53
2023/03/15 06:13:22;;;;;;;3.13;2.83;;;2.20;99.90;;;;;;4994382;28;20050;-54
2023/03/15 06:15:48;;;;;;;3.08;2.63;;;2.10;99.90;;;;;;4994191;28;20065;-49
2023/03/15 06:18:16;;;;;;;3.55;2.80;;;2.00;99.90;;;;;;4994585;28;20469;-50
2023/03/15 06:20:42;;;;;;;3.58;3.25;;;1.90;99.90;;;;;;4994284;28;20027;-50
2023/03/15 06:23:08;;;;;;;3.17;2.88;;;1.90;99.90;;;;;;4994104;28;20481;-48
2023/03/15 06:25:34;;;;;;;3.08;2.88;;;1.80;99.90;;;;;;4992850;28;20114;-53
2023/03/15 06:28:00;;;;;;;3.28;2.53;;;1.80;99.90;;;;;;4994127;28;20042;-55
2023/03/15 06:30:26;;;;;;;6.00;3.58;;;1.80;99.90;;;;;;4994225;28;20037;-49
2023/03/15 06:32:52;;;;;;;4.63;2.88;;;1.60;99.90;;;;;;4994208;28;20561;-52
2023/03/15 06:35:18;;;;;;;4.15;3.08;;;1.50;99.90;;;;;;4994201;28;20106;-51
2023/03/15 06:37:44;;;;;;;6.80;3.10;;;1.50;99.90;;;;;;4993833;28;20417;-50
2023/03/15 06:40:11;;;;;;;7.25;3.25;;;1.60;99.90;;;;;;4994108;28;20101;-50
2023/03/15 06:42:38;;;;;;;8.77;3.97;;;1.50;99.90;;;;;;4992454;28;20061;-53
2023/03/15 06:45:05;;;;;;;5.68;3.72;;;1.50;99.90;;;;;;4993851;28;20069;-49
2023/03/15 06:47:30;;;;;;;6.05;4.63;;;1.50;99.90;;;;;;4994027;28;20034;-53
2023/03/15 06:49:56;;;;;;;6.45;4.00;;;1.60;99.90;;;;;;4993618;28;20018;-51
2023/03/15 06:52:22;;;;;;;9.25;4.28;;;1.70;99.90;;;;;;4993392;28;20041;-54
2023/03/15 06:54:48;;;;;;;109.10;40.42;;;1.70;99.90;;;;;;4992307;28;20026;-52
2023/03/15 06:57:13;;;;;;;11.02;5.68;;;1.70;99.90;;;;;;4993609;28;20568;-49
2023/03/15 06:59:39;;;;;;;6.07;4.65;;;1.60;99.90;;;;;;4993629;28;20061;-55
2023/03/15 07:02:14;;;;;;;4.97;3.88;;;1.70;99.90;;;;;;4993620;28;20533;-52
2023/03/15 07:04:39;;;;;;;8.10;5.18;;;1.70;99.90;;;;;;4993252;28;20022;-48
2023/03/15 07:07:05;;;;;;;4.82;3.35;;;1.60;99.90;;;;;;4993197;28;20014;-52
2023/03/15 07:09:31;;;;;;;10.13;4.15;;;1.50;99.90;;;;;;4991953;28;20121;-49
2023/03/15 07:11:56;;;;;;;8.98;5.25;;;1.60;99.90;;;;;;4993237;28;20023;-52
2023/03/15 07:14:22;;;;;;;7.07;3.45;;;1.60;99.90;;;;;;4993161;28;20049;-55
2023/03/15 07:16:48;;;;;;;10.00;4.30;;;1.60;99.90;;;;;;4992760;28;20037;-47
2023/03/15 07:19:13;;;;;;;4.65;3.17;;;1.60;99.90;;;;;;4993125;28;20026;-53
2023/03/15 07:21:39;;;;;;;6.40;3.58;;;1.70;99.90;;;;;;4993014;28;20552;-50
2023/03/15 07:24:05;;;;;;;5.22;3.40;;;1.80;99.90;;;;;;4993003;28;20044;-50
2023/03/15 07:26:30;;;;;;;4.20;3.53;;;1.90;99.90;;;;;;4992795;28;20023;-48
2023/03/15 07:28:56;;;;;;;6.03;3.40;;;1.90;99.90;;;;;;4992832;28;20050;-52
2023/03/15 07:31:22;;;;;;;8.35;4.47;;;2.00;99.90;;;;;;4993190;28;20484;-51
2023/03/15 07:33:47;;;;;;;10.00;3.47;;;2.00;99.90;;;;;;4992807;28;20401;-53
2023/03/15 07:36:13;;;;;;;8.10;4.75;;;2.10;99.90;;;;;;4992721;28;20036;-49
2023/03/15 07:38:40;;;;;;;4.63;3.63;;;2.30;99.90;;;;;;4992799;28;20034;-53
2023/03/15 07:41:06;;;;;;;7.63;4.68;;;2.40;99.90;;;;;;4992660;28;20031;-51
2023/03/15 07:43:33;;;;;;;5.70;4.10;;;2.50;99.90;;;;;;4991406;28;20033;-52
2023/03/15 07:45:59;;;;;;;9.25;6.88;;;2.50;99.90;;;;;;4992713;28;20130;-51
2023/03/15 07:48:25;;;;;;;59.97;30.05;;;2.60;99.90;;;;;;4992537;28;20115;-53
2023/03/15 07:50:50;;;;;;;17.85;7.97;;;2.60;99.90;;;;;;4992307;28;20034;-53
2023/03/15 07:53:16;;;;;;;9.00;4.78;;;2.70;99.90;;;;;;4992657;28;20033;-51
2023/03/15 07:55:43;;;;;;;15.35;7.65;;;2.80;99.90;;;;;;4992329;28;20493;-52
2023/03/15 07:58:09;;;;;;;10.25;4.40;;;2.80;99.90;;;;;;4992622;28;20033;-48
2023/03/15 08:00:35;;;;;;;7.97;4.47;;;2.80;99.90;;;;;;4992323;28;20026;-50
2023/03/15 08:03:00;;;;;;;10.13;3.78;;;2.90;99.90;;;;;;4992411;28;20026;-53
2023/03/15 08:05:26;;;;;;;12.13;4.32;;;3.00;99.90;;;;;;4992492;28;20031;-54
2023/03/15 08:07:51;;;;;;;10.18;4.10;;;3.40;99.90;;;;;;4992377;28;20073;-51
2023/03/15 08:10:18;;;;;;;10.50;3.72;;;3.60;99.90;;;;;;4992309;28;20014;-51
2023/03/15 08:12:44;;;;;;;6.03;3.45;;;3.80;99.90;;;;;;4991092;28;20026;-50
2023/03/15 08:15:12;;;;;;;19.00;6.43;;;4.00;99.90;;;;;;4992235;28;20441;-51
2023/03/15 08:17:38;;;;;;;4.55;4.03;;;3.90;99.90;;;;;;4990804;28;20524;-53
2023/03/15 08:20:05;;;;;;;8.15;3.58;;;3.90;99.90;;;;;;4992316;28;20027;-53
2023/03/15 08:22:31;;;;;;;10.13;4.18;;;3.90;99.90;;;;;;4991711;28;20062;-49
2023/03/15 08:24:57;;;;;;;6.78;3.92;;;4.10;99.90;;;;;;4992063;28;20026;-53
2023/03/15 08:27:24;;;;;;;4.72;3.75;;;4.30;99.90;;;;;;4992053;28;20486;-47
2023/03/15 08:29:50;;;;;;;5.30;3.38;;;4.40;99.90;;;;;;4991950;28;20030;-53
2023/03/15 08:32:17;;;;;;;5.13;3.78;;;4.10;99.90;;;;;;4992094;28;20165;-50
2023/03/15 08:34:43;;;;;;;7.00;4.10;;;3.90;99.90;;;;;;4991849;28;20027;-52
2023/03/15 08:37:10;;;;;;;8.13;4.00;;;3.70;99.90;;;;;;4992124;28;20390;-51
2023/03/15 08:39:37;;;;;;;9.50;3.70;;;3.70;99.90;;;;;;4991921;28;20033;-52
2023/03/15 08:42:03;;;;;;;7.28;3.63;;;3.50;99.90;;;;;;4992103;28;20030;-49
2023/03/15 08:44:28;;;;;;;5.00;3.55;;;3.50;99.90;;;;;;4992048;28;20031;-49
2023/03/15 08:46:54;;;;;;;10.02;6.57;;;3.60;99.90;;;;;;4991917;28;20029;-50
2023/03/15 08:49:20;;;;;;;15.98;7.72;;;3.50;99.90;;;;;;4991931;28;20034;-53
2023/03/15 08:51:45;;;;;;;9.25;5.70;;;3.60;99.90;;;;;;4990636;28;20057;-53
2023/03/15 08:54:13;;;;;;;8.50;4.30;;;3.70;99.90;;;;;;4990596;28;20074;-53
2023/03/15 08:56:40;;;;;;;5.38;3.42;;;3.90;99.90;;;;;;4991876;28;20386;-48
2023/03/15 08:59:06;;;;;;;7.63;3.33;;;4.20;99.90;;;;;;4991766;28;20030;-48
2023/03/15 09:01:33;;;;;;;5.72;3.47;;;4.20;99.90;;;;;;4991821;28;20030;-52
2023/03/15 09:04:00;;;;;;;3.88;2.95;;;4.20;99.90;;;;;;4991770;28;20065;-49
2023/03/15 09:06:27;;;;;;;6.75;3.53;;;4.30;99.90;;;;;;4991825;28;20022;-55
2023/03/15 09:08:52;;;;;;;5.85;3.45;;;4.30;99.90;;;;;;4991698;28;20409;-49
2023/03/15 09:11:19;;;;;;;9.60;4.57;;;4.50;99.90;;;;;;4991851;28;20024;-48
2023/03/15 09:13:44;;;;;;;8.55;4.40;;;4.60;99.90;;;;;;4991672;28;20354;-50
2023/03/15 09:16:10;;;;;;;7.75;4.05;;;4.70;99.90;;;;;;4991580;28;20088;-50
2023/03/15 09:18:42;;;;;;;7.00;4.00;;;4.20;99.90;;;;;;4991711;28;20031;-52
2023/03/15 09:21:08;;;;;;;6.78;5.15;;;4.00;99.90;;;;;;4991817;28;20033;-49
2023/03/15 09:23:34;;;;;;;13.82;4.68;;;4.10;99.90;;;;;;4991540;28;20023;-54
2023/03/15 09:25:59;;;;;;;7.80;4.10;;;3.80;99.90;;;;;;4981724;28;20086;-53
2023/03/15 09:28:25;;;;;;;5.90;3.58;;;3.70;99.90;;;;;;4972141;28;20709;-50
2023/03/15 09:30:51;;;;;;;8.25;3.90;;;3.70;99.90;;;;;;4979349;28;20031;-49
2023/03/15 09:33:17;;;;;;;5.93;4.18;;;3.80;99.90;;;;;;4972456;28;20165;-54
2023/03/15 09:35:42;;;;;;;9.73;5.25;;;3.70;99.90;;;;;;4998685;28;20031;-55
2023/03/15 09:38:09;;;;;;;11.98;5.32;;;3.70;99.90;;;;;;4975711;28;20031;-50
2023/03/15 09:40:58;;;;;;;6.55;4.53;;;3.80;99.90;;;;;;4976127;28;20030;-52
2023/03/15 09:43:54;;;;;;;17.15;5.25;;;3.70;99.90;;;;;;4975414;28;20029;-55
2023/03/15 09:46:30;;;;;;;4.22;3.28;;;3.80;99.90;;;;;;4975656;28;20031;-57
2023/03/15 09:49:11;;;;;;;9.68;4.25;;;4.20;99.90;;;;;;4976118;28;20541;-52
2023/03/15 09:51:53;;;;;;;5.38;3.13;;;4.40;99.90;;;;;;4975054;28;20027;-52
2023/03/15 09:54:37;;;;;;;5.68;2.85;;;4.50;99.90;;;;;;4980939;28;20380;-53
2023/03/15 09:57:09;;;;;;;13.82;6.80;;;4.60;99.90;;;;;;4974740;28;20042;-54
2023/03/15 09:59:40;;;;;;;16.13;6.00;;;4.60;99.90;;;;;;4975069;28;20058;-51
2023/03/15 10:02:18;;;;;;;25.67;7.78;;;5.00;99.90;;;;;;4974888;28;20042;-50
2023/03/15 10:04:46;;;;;;;15.52;6.63;;;5.10;99.90;;;;;;4983162;28;20464;-53
2023/03/15 10:07:14;;;;;;;11.88;7.53;;;5.00;99.90;;;;;;4974928;28;20023;-51
2023/03/15 10:09:40;;;;;;;10.63;4.82;;;5.10;99.90;;;;;;4975669;28;20026;-51
2023/03/15 10:12:12;;;;;;;11.40;5.70;;;5.30;99.90;;;;;;4974823;28;20157;-48
2023/03/15 10:14:47;;;;;;;10.85;5.80;;;5.10;99.90;;;;;;4982439;28;20033;-49
2023/03/15 10:17:35;;;;;;;22.80;5.88;;;5.00;99.90;;;;;;4974706;28;20013;-51
2023/03/15 10:20:12;;;;;;;7.93;4.95;;;4.90;99.90;;;;;;4975389;28;20062;-52
2023/03/15 10:22:47;;;;;;;10.95;5.00;;;5.00;99.90;;;;;;4974556;28;20085;-53
2023/03/15 10:25:28;;;;;;;13.85;4.75;;;5.00;99.90;;;;;;4983414;28;20160;-49
2023/03/15 10:28:19;;;;;;;9.18;5.00;;;4.80;99.90;;;;;;4974415;28;20152;-50
2023/03/15 10:30:48;;;;;;;8.90;4.43;;;5.00;99.90;;;;;;4972298;28;20065;-50
2023/03/15 10:33:31;;;;;;;14.38;5.22;;;5.40;99.90;;;;;;4974202;28;20058;-54
2023/03/15 10:35:57;;;;;;;;;;;5.00;99.90;;;;;;4983846;28;20110;-54
2023/03/15 10:38:25;;;;;;;6.40;4.60;;;5.00;99.90;;;;;;4974668;28;20580;-49
2023/03/15 10:40:57;;;;;;;9.65;4.93;;;5.20;99.90;;;;;;4974900;28;20039;-54
2023/03/15 10:43:26;;;;;;;8.27;4.97;;;5.40;99.90;;;;;;4974324;28;20386;-49
2023/03/15 10:46:08;;;;;;;7.95;4.20;;;5.30;99.90;;;;;;4982221;28;20430;-51
2023/03/15 10:48:36;;;;;;;10.30;4.50;;;5.80;99.90;;;;;;4974067;28;20030;-48
2023/03/15 10:51:30;;;;;;;11.90;4.80;;;6.00;99.90;;;;;;4974774;28;20031;-53
2023/03/15 10:53:59;;;;;;;8.45;3.92;;;6.20;99.00;;;;;;4974214;28;20347;-55
2023/03/15 10:56:32;;;;;;;9.65;4.20;;;5.90;96.20;;;;;;4974663;28;20122;-52
2023/03/15 10:59:00;;;;;;;13.57;3.90;;;6.90;98.60;;;;;;4973719;28;20118;-49
2023/03/15 11:01:36;;;;;;;7.60;3.40;;;8.00;91.50;;;;;;4974601;28;20030;-51
2023/03/15 11:04:20;;;;;;;8.57;3.38;;;7.70;90.00;;;;;;4973961;28;20050;-54
2023/03/15 11:07:01;;;;;;;11.93;3.20;;;8.90;88.30;;;;;;4973855;28;20030;-56
2023/03/15 11:09:38;;;;;;;10.45;3.40;;;9.10;84.20;;;;;;4974350;28;20027;-54
2023/03/15 11:12:06;;;;;;;8.27;3.50;;;10.00;77.10;;;;;;4973944;28;20026;-54
2023/03/15 11:14:42;;;;;;;9.00;3.58;;;10.30;80.30;;;;;;4977105;28;20381;-55
2023/03/15 11:17:17;;;;;;;6.75;4.22;;;10.60;77.20;;;;;;4977577;28;20027;-54
2023/03/15 11:20:15;;;;;;;6.63;3.53;;;10.90;77.30;;;;;;4974073;28;20114;-54
2023/03/15 11:22:41;;;;;;;7.55;3.67;;;11.30;78.00;;;;;;4973607;28;20057;-54
2023/03/15 11:25:14;;;;;;;10.95;4.03;;;11.40;71.50;;;;;;4980723;28;20373;-54
2023/03/15 11:27:42;;;;;;;9.00;4.65;;;11.40;75.30;;;;;;4992494;28;20042;-50
2023/03/15 11:30:16;;;;;;;7.80;2.90;;;13.20;62.70;;;;;;4993027;28;20434;-53
2023/03/15 11:32:42;;;;;;;;;;;11.40;63.10;;;;;;4993345;28;20037;-55
2023/03/15 11:35:13;;;;;;;8.27;3.45;;;10.40;66.30;;;;;;4993144;28;19960;-48
2023/03/15 11:37:38;;;;;;;8.88;3.55;;;9.70;63.70;;;;;;4992993;28;20031;-52
2023/03/15 11:40:24;;;;;;;5.07;3.67;;;9.00;69.80;;;;;;4992606;28;20036;-47
2023/03/15 11:43:05;;;;;;;8.15;4.20;;;8.40;69.60;;;;;;4984834;28;20084;-48
2023/03/15 11:45:39;;;;;;;8.02;3.15;;;8.30;73.60;;;;;;4992668;28;20037;-50
2023/03/15 11:48:19;;;;;;;8.23;3.78;;;8.90;70.30;;;;;;4992659;28;20054;-50
2023/03/15 11:50:45;;;;;;;5.75;3.60;;;9.90;69.90;;;;;;4992670;28;20397;-51
2023/03/15 11:53:15;;;;;;;8.48;3.85;;;9.20;69.90;;;;;;4992438;28;20030;-50
2023/03/15 11:55:52;;;;;;;7.75;3.17;;;9.70;65.60;;;;;;4992139;28;20034;-54
2023/03/15 11:58:29;;;;;;;15.30;3.67;;;11.10;66.00;;;;;;4992210;28;20176;-51
2023/03/15 12:01:01;;;;;;;8.32;4.78;;;13.00;61.00;;;;;;4992389;28;20050;-56
2023/03/15 12:03:29;;;;;;;6.53;4.00;;;12.10;57.60;;;;;;4992491;28;20073;-57
2023/03/15 12:06:01;;;;;;;7.85;3.60;;;11.40;59.70;;;;;;4992435;28;20358;-53
2023/03/15 12:08:42;;;;;;;5.95;3.47;;;10.60;64.10;;;;;;4992471;28;20056;-51
2023/03/15 12:11:37;;;;;;;11.05;4.00;;;9.90;62.90;;;;;;4992533;28;20038;-56
2023/03/15 12:14:05;;;;;;;10.90;3.17;;;8.90;67.30;;;;;;4991948;28;20031;-51
2023/03/15 12:16:43;;;;;;;6.97;3.80;;;8.60;67.10;;;;;;4990779;28;20551;-50
2023/03/15 12:19:14;;;;;;;6.90;3.90;;;7.90;72.10;;;;;;4979429;28;20058;-48
2023/03/15 12:21:45;;;;;;;7.97;3.75;;;8.90;71.00;;;;;;4962469;28;20502;-49
2023/03/15 12:24:24;;;;;;;6.32;3.30;;;9.50;70.30;;;;;;4962332;28;20490;-52
2023/03/15 12:27:20;;;;;;;7.50;3.20;;;10.60;66.30;;;;;;4961813;28;20031;-48
2023/03/15 12:29:48;;;;;;;8.95;3.60;;;10.60;66.70;;;;;;4961731;28;20077;-52
2023/03/15 12:32:18;;;;;;;5.07;3.13;;;11.00;67.00;;;;;;4962368;28;20490;-54
2023/03/15 12:34:56;;;;;;;7.45;3.65;;;11.80;63.00;;;;;;4962729;28;21774;-53
2023/03/15 12:37:30;;;;;;;11.57;3.45;;;11.00;66.80;;;;;;4962574;28;20358;-50
2023/03/15 12:40:14;;;;;;;8.30;3.97;;;10.60;63.40;;;;;;4961905;28;20485;-51
2023/03/15 12:42:40;;;;;;;9.07;4.03;;;9.50;64.50;;;;;;4962025;28;20070;-47
2023/03/15 12:45:15;;;;;;;6.22;3.95;;;8.70;66.30;;;;;;4962369;28;20074;-51
2023/03/15 12:47:50;;;;;;;6.75;4.95;;;7.80;69.70;;;;;;4962107;28;20042;-49
2023/03/15 12:50:58;;;;;;;7.60;4.45;;;7.60;72.10;;;;;;4962546;28;20031;-53
2023/03/15 12:53:40;;;;;;;5.65;3.72;;;7.60;70.40;;;;;;4958895;28;20066;-50
2023/03/15 12:56:17;;;;;;;5.22;3.42;;;10.00;62.70;;;;;;4962135;28;20042;-53
2023/03/15 12:58:47;;;;;;;4.60;3.45;;;11.70;57.00;;;;;;4961868;28;20486;-54
2023/03/15 13:01:15;;;;;;;5.97;3.33;;;10.80;58.40;;;;;;4960711;28;20039;-50
2023/03/15 13:03:42;;;;;;;6.88;3.72;;;10.20;61.10;;;;;;4963068;28;20493;-51
2023/03/15 13:06:36;;;;;;;6.90;3.40;;;10.20;62.80;;;;;;4962092;28;20030;-52